Time;durP1;ratioP1;P1;durP2;ratioP2;P2;SDS_P1;SDS_P2;PMS_P1;PMS_P2;Temp;Humidity;BMP_temperature;BMP_pressure;BME280_temperature;BME280_humidity;BME280_pressure;Samples;Min_cycle;Max_cycle;Signal;HPM_P1;HPM_P2
2021/06/02 00:34:08;;;;;;;7.47;3.65;;;10.20;79.00;;;;;;5010881;28;20222;-88
2021/06/02 00:36:35;;;;;;;7.90;3.70;;;10.10;79.30;;;;;;5016475;28;20230;-89
2021/06/02 00:39:02;;;;;;;5.68;3.80;;;10.00;79.80;;;;;;5010154;28;20239;-89
2021/06/02 00:41:30;;;;;;;8.50;3.85;;;10.00;81.10;;;;;;5010897;28;20230;-88
2021/06/02 00:43:57;;;;;;;4.85;4.05;;;10.10;81.00;;;;;;5009197;28;20698;-89
2021/06/02 00:46:26;;;;;;;7.20;3.90;;;10.00;82.10;;;;;;5008988;28;20565;-90
2021/06/02 00:48:53;;;;;;;4.63;3.88;;;10.00;81.00;;;;;;5010595;28;20295;-88
2021/06/02 00:51:22;;;;;;;4.30;3.45;;;10.00;81.00;;;;;;5027267;28;20195;-89
2021/06/02 00:53:51;;;;;;;5.18;3.13;;;10.00;80.70;;;;;;4989611;28;20302;-89
2021/06/02 00:56:23;;;;;;;4.22;3.35;;;10.00;81.40;;;;;;5003500;28;20742;-88
2021/06/02 00:58:52;;;;;;;7.68;3.72;;;10.00;80.20;;;;;;5011462;28;20194;-89
2021/06/02 01:01:18;;;;;;;6.68;3.65;;;9.90;82.30;;;;;;5029273;28;20627;-89
2021/06/02 01:03:46;;;;;;;4.20;3.47;;;9.90;83.60;;;;;;5022938;28;20236;-88
2021/06/02 01:06:13;;;;;;;5.03;3.35;;;9.90;83.30;;;;;;5009149;28;20204;-89
2021/06/02 01:08:45;;;;;;;5.22;3.50;;;9.90;83.70;;;;;;5008210;28;20227;-89
2021/06/02 01:11:12;;;;;;;5.40;3.75;;;9.90;83.60;;;;;;5008461;28;20725;-90
2021/06/02 01:13:43;;;;;;;5.63;3.60;;;10.00;82.40;;;;;;5021048;28;20277;-89
2021/06/02 01:16:09;;;;;;;6.57;3.72;;;9.90;83.60;;;;;;5019283;28;20231;-89
2021/06/02 01:18:36;;;;;;;5.03;3.65;;;9.90;83.90;;;;;;5007262;28;20227;-90
2021/06/02 01:21:09;;;;;;;6.47;4.03;;;9.90;84.10;;;;;;5024131;28;20199;-91
2021/06/02 01:23:37;;;;;;;6.47;4.10;;;9.80;83.50;;;;;;5026358;28;20235;-92
2021/06/02 01:26:04;;;;;;;7.30;3.50;;;9.70;83.20;;;;;;5016375;28;20337;-89
2021/06/02 01:28:31;;;;;;;4.63;3.57;;;9.60;84.10;;;;;;5001705;28;20239;-90
2021/06/02 01:30:57;;;;;;;5.60;3.70;;;9.60;84.50;;;;;;5003203;28;20207;-90
2021/06/02 01:33:41;;;;;;;6.38;3.70;;;9.50;84.80;;;;;;5004181;28;20310;-89
2021/06/02 01:36:10;;;;;;;5.43;3.57;;;9.40;84.80;;;;;;5005677;28;20208;-89
2021/06/02 01:39:14;;;;;;;4.27;3.80;;;9.40;85.70;;;;;;5005262;28;20628;-90
2021/06/02 01:42:12;;;;;;;5.27;3.90;;;9.30;86.30;;;;;;5015057;28;20210;-89
2021/06/02 01:45:14;;;;;;;4.97;3.67;;;9.30;87.00;;;;;;5014965;28;20246;-91
2021/06/02 01:48:09;;;;;;;6.33;3.87;;;9.30;87.00;;;;;;5010830;28;20230;-91
2021/06/02 01:50:57;;;;;;;5.70;3.90;;;9.20;87.80;;;;;;5008816;28;20292;-89
2021/06/02 01:53:47;;;;;;;5.77;3.90;;;9.20;88.50;;;;;;5005284;28;20263;-88
2021/06/02 01:56:45;;;;;;;5.23;3.93;;;9.10;88.90;;;;;;5008668;28;20211;-89
2021/06/02 01:59:49;;;;;;;5.60;4.30;;;9.00;89.60;;;;;;5027699;28;20352;-88
2021/06/02 02:02:50;;;;;;;6.13;4.00;;;9.00;90.10;;;;;;5006022;28;20211;-89
2021/06/02 02:05:38;;;;;;;7.77;3.90;;;9.00;90.50;;;;;;5014692;28;20247;-89
2021/06/02 02:08:31;;;;;;;5.60;3.93;;;9.10;90.50;;;;;;5018588;28;20207;-88
2021/06/02 02:11:06;;;;;;;5.90;3.63;;;9.10;90.50;;;;;;5020736;28;20663;-88
2021/06/02 02:13:56;;;;;;;5.67;4.17;;;9.10;90.50;;;;;;5017029;28;20242;-88
2021/06/02 02:16:32;;;;;;;4.47;4.00;;;9.00;90.50;;;;;;4998965;28;20251;-88
2021/06/02 02:19:08;;;;;;;4.73;4.07;;;8.90;90.40;;;;;;5012133;28;20241;-89
2021/06/02 02:21:46;;;;;;;6.10;3.63;;;8.80;90.40;;;;;;5010505;28;20274;-88
2021/06/02 02:24:38;;;;;;;6.80;4.00;;;8.70;91.10;;;;;;5007649;28;20227;-88
2021/06/02 02:27:21;;;;;;;4.73;3.90;;;8.70;90.90;;;;;;5007658;28;20184;-89
2021/06/02 02:29:58;;;;;;;7.27;4.10;;;8.70;91.00;;;;;;4994324;28;20243;-88
2021/06/02 02:33:03;;;;;;;5.53;3.93;;;8.70;91.30;;;;;;4990908;28;20571;-88
2021/06/02 02:35:47;;;;;;;4.00;3.53;;;8.70;91.30;;;;;;5000316;28;20757;-88
2021/06/02 02:38:30;;;;;;;8.67;4.37;;;8.70;91.10;;;;;;5007121;28;20192;-88
2021/06/02 02:44:02;;;;;;;6.43;4.37;;;8.50;91.40;;;;;;5009192;28;20188;-88
2021/06/02 02:57:58;;;;;;;4.20;3.80;;;8.20;91.00;;;;;;5716211;22;20240;-91
2021/06/02 03:00:31;;;;;;;4.87;3.80;;;8.20;91.10;;;;;;5019682;28;20647;-91
2021/06/02 03:03:10;;;;;;;4.43;3.93;;;8.20;91.80;;;;;;5020015;28;20203;-91
2021/06/02 03:06:29;;;;;;;4.00;3.60;;;8.30;91.50;;;;;;5001872;28;20219;-91
2021/06/02 03:09:40;;;;;;;5.60;3.90;;;8.30;91.40;;;;;;5017375;28;20260;-91
2021/06/02 03:15:43;;;;;;;5.80;3.97;;;8.20;91.30;;;;;;5016784;28;20202;-91
2021/06/02 03:18:19;;;;;;;4.50;3.80;;;8.30;91.50;;;;;;5020820;28;20192;-91
2021/06/02 03:21:09;;;;;;;7.30;4.03;;;8.30;91.50;;;;;;5016378;28;20201;-91
2021/06/02 03:27:14;;;;;;;6.70;3.80;;;8.40;91.30;;;;;;5000811;28;20243;-90
2021/06/02 03:33:34;;;;;;;5.97;3.90;;;8.50;90.60;;;;;;4999292;28;20539;-91
2021/06/02 03:43:11;;;;;;;7.47;4.10;;;8.20;91.60;;;;;;5033033;28;20186;-87
2021/06/02 03:49:31;;;;;;;5.17;4.10;;;8.40;91.50;;;;;;5031476;28;20215;-88
2021/06/02 03:52:31;;;;;;;5.00;3.93;;;8.40;91.30;;;;;;5032072;28;20226;-88
2021/06/02 03:57:58;;;;;;;7.00;4.23;;;8.40;91.00;;;;;;5030826;28;20258;-88
2021/06/02 04:03:22;;;;;;;10.10;4.50;;;8.30;91.20;;;;;;5029999;28;20197;-88
2021/06/02 04:09:10;;;;;;;5.60;4.40;;;8.30;91.20;;;;;;5021598;28;20235;-88
2021/06/02 04:11:51;;;;;;;5.43;4.30;;;8.30;90.80;;;;;;5026998;28;20203;-88
2021/06/02 04:14:30;;;;;;;8.03;4.33;;;8.40;91.00;;;;;;5029015;28;20230;-88
2021/06/02 04:16:57;;;;;;;7.00;4.00;;;8.50;91.10;;;;;;5029697;28;20242;-88
2021/06/02 04:19:26;;;;;;;5.20;4.27;;;8.50;91.40;;;;;;5028248;28;20646;-89
2021/06/02 04:21:52;;;;;;;7.27;4.53;;;8.70;91.40;;;;;;5029297;28;20314;-87
2021/06/02 04:24:19;;;;;;;5.33;4.23;;;8.80;90.90;;;;;;5028333;28;20821;-88
2021/06/02 04:26:48;;;;;;;4.73;3.93;;;8.90;91.10;;;;;;5029127;28;20263;-89
2021/06/02 04:29:15;;;;;;;7.03;4.40;;;8.90;90.70;;;;;;5027310;28;20223;-88
2021/06/02 04:31:52;;;;;;;6.10;4.10;;;8.90;90.40;;;;;;5030415;28;20215;-89
2021/06/02 04:34:20;;;;;;;5.27;4.27;;;9.00;90.50;;;;;;5028505;28;20286;-90
2021/06/02 04:36:50;;;;;;;4.70;4.00;;;9.10;90.50;;;;;;5029008;28;20223;-89
2021/06/02 04:39:18;;;;;;;6.27;4.13;;;9.30;90.10;;;;;;5028484;28;20233;-88
2021/06/02 04:41:47;;;;;;;4.97;4.30;;;9.40;90.50;;;;;;5019618;28;20666;-88
2021/06/02 04:44:16;;;;;;;7.23;4.23;;;9.50;90.20;;;;;;5024942;28;20226;-89
2021/06/02 04:46:46;;;;;;;7.57;4.13;;;9.50;89.60;;;;;;5030192;28;20234;-88
2021/06/02 04:49:13;;;;;;;5.53;3.70;;;9.60;89.10;;;;;;5028962;28;20238;-88
2021/06/02 04:52:07;;;;;;;7.00;4.30;;;9.60;89.10;;;;;;5011193;28;20208;-88
2021/06/02 04:55:27;;;;;;;7.07;4.57;;;9.80;88.70;;;;;;5026542;28;20231;-88
2021/06/02 04:58:36;;;;;;;5.53;4.27;;;9.90;88.90;;;;;;5016032;28;20742;-88
2021/06/02 05:08:28;;;;;;;7.68;4.18;;;10.50;83.70;;;;;;5013193;28;20201;-88
2021/06/02 05:38:31;;;;;;;6.63;4.00;;;11.60;77.40;;;;;;5006359;28;20234;-91
2021/06/02 05:44:56;;;;;;;5.97;4.60;;;13.40;66.50;;;;;;5027912;28;20163;-90
2021/06/02 05:48:09;;;;;;;6.47;4.13;;;14.00;62.10;;;;;;5022860;28;20218;-92
2021/06/02 05:51:24;;;;;;;4.60;4.00;;;14.70;57.00;;;;;;5005597;28;20222;-92
2021/06/02 05:54:34;;;;;;;6.35;4.28;;;15.10;52.10;;;;;;5022037;28;20234;-93
2021/06/02 05:57:33;;;;;;;10.32;4.50;;;15.00;51.40;;;;;;4995241;28;20220;-92
2021/06/02 06:00:31;;;;;;;7.35;4.65;;;14.70;51.10;;;;;;5009725;28;20279;-91
2021/06/02 06:03:23;;;;;;;6.78;4.40;;;14.40;51.90;;;;;;4998834;28;20199;-90
2021/06/02 06:06:04;;;;;;;5.47;4.05;;;14.10;53.70;;;;;;5027902;28;20222;-90
2021/06/02 06:09:02;;;;;;;9.82;4.82;;;13.90;54.90;;;;;;5023919;28;20190;-92
2021/06/02 06:11:53;;;;;;;6.82;4.65;;;13.80;56.00;;;;;;5026529;28;20663;-90
2021/06/02 06:14:44;;;;;;;8.45;4.63;;;13.70;57.60;;;;;;5021321;28;20255;-90
2021/06/02 06:17:34;;;;;;;10.15;4.40;;;13.70;60.20;;;;;;4981557;28;20222;-90
2021/06/02 06:20:38;;;;;;;6.82;4.07;;;13.70;59.00;;;;;;5017588;28;20288;-91
2021/06/02 06:23:36;;;;;;;9.85;4.35;;;13.80;57.80;;;;;;5009770;28;20206;-91
2021/06/02 06:26:08;;;;;;;7.18;4.25;;;14.00;57.40;;;;;;5008733;28;20667;-90
2021/06/02 06:28:41;;;;;;;9.77;4.30;;;14.00;56.70;;;;;;5022035;28;20366;-92
2021/06/02 06:31:13;;;;;;;14.45;4.32;;;14.00;56.10;;;;;;5020068;28;20654;-92
2021/06/02 06:33:41;;;;;;;9.48;4.30;;;14.20;54.60;;;;;;5021160;28;20352;-90
2021/06/02 06:36:10;;;;;;;5.50;4.30;;;14.20;57.50;;;;;;5029688;28;20199;-91
2021/06/02 06:38:53;;;;;;;4.80;4.10;;;14.30;53.80;;;;;;5016052;28;20231;-90
2021/06/02 06:41:22;;;;;;;8.35;4.50;;;14.40;55.50;;;;;;5023535;28;20686;-90
2021/06/02 06:43:54;;;;;;;6.53;4.00;;;14.50;54.20;;;;;;5011647;28;20251;-90
2021/06/02 06:46:23;;;;;;;4.63;3.70;;;14.60;51.00;;;;;;5026694;28;20246;-91
2021/06/02 06:48:51;;;;;;;4.50;3.58;;;14.70;51.10;;;;;;5023550;28;20223;-91
2021/06/02 06:51:20;;;;;;;7.43;3.80;;;14.80;51.20;;;;;;5011652;28;20266;-91
2021/06/02 06:53:47;;;;;;;9.70;4.22;;;14.80;51.20;;;;;;4997222;28;20235;-90
2021/06/02 06:56:16;;;;;;;4.90;3.78;;;14.90;51.30;;;;;;5017374;28;20210;-92
2021/06/02 06:58:44;;;;;;;5.45;3.85;;;15.10;50.00;;;;;;5023889;28;20227;-91
2021/06/02 07:01:14;;;;;;;12.90;4.07;;;15.10;50.40;;;;;;5014024;28;20262;-91
2021/06/02 07:03:41;;;;;;;8.88;3.65;;;15.20;48.60;;;;;;5020446;28;20237;-92
2021/06/02 07:06:08;;;;;;;6.13;3.78;;;15.40;49.40;;;;;;5023137;28;20191;-92
2021/06/02 07:08:35;;;;;;;7.25;3.45;;;15.50;48.30;;;;;;5013984;28;20273;-91
2021/06/02 07:11:01;;;;;;;6.57;4.20;;;15.70;47.80;;;;;;5014672;28;20214;-92
2021/06/02 07:13:30;;;;;;;8.23;3.83;;;15.80;47.30;;;;;;5015141;28;20195;-91
2021/06/02 07:16:01;;;;;;;7.00;3.50;;;16.00;47.30;;;;;;5031032;28;20208;-89
2021/06/02 07:18:32;;;;;;;7.13;3.55;;;16.90;44.70;;;;;;5026517;28;20264;-89
2021/06/02 07:21:00;;;;;;;9.65;4.05;;;17.90;40.70;;;;;;5029199;28;20188;-89
2021/06/02 07:23:27;;;;;;;7.75;3.20;;;18.60;39.30;;;;;;5028275;28;20200;-89
2021/06/02 07:29:12;;;;;;;6.15;3.63;;;18.90;36.60;;;;;;5011565;28;20234;-90
2021/06/02 07:31:39;;;;;;;7.97;3.75;;;18.40;37.20;;;;;;5027753;28;20207;-89
2021/06/02 07:34:07;;;;;;;10.85;3.60;;;18.20;38.30;;;;;;5028164;28;20215;-89
2021/06/02 07:36:33;;;;;;;4.80;3.30;;;18.10;38.40;;;;;;5030188;28;20227;-89
2021/06/02 07:39:00;;;;;;;8.65;3.30;;;18.20;37.60;;;;;;5029738;28;20310;-88
2021/06/02 07:41:27;;;;;;;8.25;3.65;;;18.00;40.70;;;;;;5028729;28;20203;-90
2021/06/02 07:43:53;;;;;;;8.40;3.30;;;17.90;41.60;;;;;;5028933;28;20231;-89
2021/06/02 07:46:20;;;;;;;6.97;3.10;;;17.80;39.30;;;;;;5047946;28;20224;-89
2021/06/02 07:48:46;;;;;;;6.15;3.08;;;17.70;38.90;;;;;;5022811;28;20235;-88
2021/06/02 07:51:14;;;;;;;11.32;3.42;;;17.70;39.30;;;;;;5029338;28;20226;-89
2021/06/02 07:53:41;;;;;;;5.47;3.20;;;17.60;39.00;;;;;;5028495;28;20257;-89
2021/06/02 07:56:07;;;;;;;7.40;3.58;;;17.80;39.20;;;;;;5029744;28;20206;-90
2021/06/02 07:58:33;;;;;;;9.05;4.10;;;18.00;38.80;;;;;;5029691;28;20227;-90
2021/06/02 08:01:00;;;;;;;5.53;3.33;;;18.00;38.30;;;;;;5029890;28;20263;-89
2021/06/02 08:03:26;;;;;;;6.05;3.75;;;18.10;38.40;;;;;;5012565;28;20253;-89
2021/06/02 08:05:53;;;;;;;5.40;3.22;;;18.40;38.30;;;;;;5022918;28;20203;-90
2021/06/02 08:08:20;;;;;;;7.18;3.50;;;18.50;38.50;;;;;;5021218;28;20203;-89
2021/06/02 08:10:48;;;;;;;4.50;3.30;;;18.60;38.30;;;;;;5025218;28;20199;-89
2021/06/02 08:13:14;;;;;;;7.43;3.50;;;18.70;36.40;;;;;;5010238;28;20200;-89
2021/06/02 08:15:40;;;;;;;5.72;3.33;;;18.80;35.70;;;;;;5028950;28;20186;-87
2021/06/02 08:18:07;;;;;;;3.90;3.05;;;19.10;36.00;;;;;;5030267;28;20227;-87
2021/06/02 08:20:33;;;;;;;4.93;3.20;;;19.70;33.70;;;;;;5028470;28;20258;-88
2021/06/02 08:23:00;;;;;;;4.53;3.10;;;21.50;31.30;;;;;;5021691;28;20199;-85
2021/06/02 08:25:28;;;;;;;7.07;3.47;;;23.60;26.00;;;;;;5023584;28;20231;-87
2021/06/02 08:27:54;;;;;;;8.60;2.85;;;25.90;22.90;;;;;;5010130;28;20199;-88
2021/06/02 08:30:21;;;;;;;3.15;2.80;;;28.00;18.20;;;;;;5012571;28;20278;-86
2021/06/02 08:32:47;;;;;;;8.07;3.05;;;30.70;17.00;;;;;;5006634;28;20197;-86
2021/06/02 08:35:16;;;;;;;5.55;3.22;;;32.70;13.90;;;;;;5013798;28;20230;-87
2021/06/02 08:37:42;;;;;;;7.45;3.33;;;33.70;11.20;;;;;;5022781;28;20230;-88
2021/06/02 08:40:10;;;;;;;4.93;3.28;;;34.80;10.40;;;;;;5017593;28;20231;-87
2021/06/02 08:42:40;;;;;;;5.78;3.70;;;34.80;9.40;;;;;;5017811;28;20558;-91
2021/06/02 08:45:08;;;;;;;5.55;3.17;;;33.40;10.20;;;;;;5014402;28;20222;-89
2021/06/02 08:47:34;;;;;;;5.45;3.30;;;33.80;10.70;;;;;;5013756;28;20207;-90
2021/06/02 08:50:01;;;;;;;7.70;3.75;;;35.40;9.70;;;;;;5021506;28;20233;-89
2021/06/02 08:52:27;;;;;;;7.40;4.10;;;36.10;9.10;;;;;;5022544;28;20203;-89
2021/06/02 08:54:55;;;;;;;5.35;4.05;;;36.90;8.40;;;;;;5021367;28;20280;-89
2021/06/02 08:57:21;;;;;;;7.80;4.05;;;36.90;7.90;;;;;;5021993;28;20237;-89
2021/06/02 08:59:49;;;;;;;5.07;4.10;;;36.40;7.30;;;;;;5013315;28;20227;-89
2021/06/02 09:02:17;;;;;;;4.78;4.25;;;36.10;7.90;;;;;;5012526;28;20659;-89
2021/06/02 09:04:43;;;;;;;8.25;4.07;;;35.90;7.60;;;;;;5017631;28;20226;-88
2021/06/02 09:07:16;;;;;;;6.50;4.80;;;36.70;7.20;;;;;;5015244;28;20195;-89
2021/06/02 09:09:43;;;;;;;7.50;4.88;;;37.70;6.60;;;;;;5013135;28;20230;-89
2021/06/02 09:12:14;;;;;;;5.80;4.55;;;36.30;6.80;;;;;;5018946;28;20198;-89
2021/06/02 09:14:40;;;;;;;6.15;4.50;;;36.80;6.70;;;;;;5014507;28;20245;-90
2021/06/02 09:17:10;;;;;;;8.05;4.65;;;36.10;7.60;;;;;;5018239;28;20577;-89
2021/06/02 09:19:41;;;;;;;4.93;4.60;;;35.80;8.20;;;;;;5018794;28;20223;-91
2021/06/02 09:22:09;;;;;;;8.63;5.00;;;36.00;8.80;;;;;;5014405;28;20199;-90
2021/06/02 09:24:50;;;;;;;6.93;5.00;;;37.30;7.40;;;;;;5017277;28;20235;-89
2021/06/02 09:27:18;;;;;;;6.43;4.85;;;36.60;7.00;;;;;;5017584;28;20289;-89
2021/06/02 09:29:52;;;;;;;13.25;7.97;;;36.10;7.80;;;;;;5016660;28;20226;-90
2021/06/02 09:32:21;;;;;;;6.60;5.03;;;36.50;7.90;;;;;;5009143;28;20203;-90
2021/06/02 09:34:48;;;;;;;4.72;4.32;;;35.30;8.00;;;;;;5003512;28;20238;-90
2021/06/02 09:37:15;;;;;;;7.93;5.10;;;34.90;7.80;;;;;;5013795;28;20219;-89
2021/06/02 09:39:43;;;;;;;9.55;5.43;;;34.50;9.20;;;;;;5012513;28;20688;-90
2021/06/02 09:42:22;;;;;;;9.90;5.50;;;35.20;8.70;;;;;;5014721;28;20199;-90
2021/06/02 09:45:03;;;;;;;6.70;5.45;;;35.60;9.70;;;;;;5013448;28;20222;-89
2021/06/02 09:47:45;;;;;;;6.00;5.07;;;34.90;7.20;;;;;;5014281;28;20202;-90
2021/06/02 09:50:13;;;;;;;6.97;5.10;;;34.70;9.30;;;;;;5012810;28;20245;-90
2021/06/02 09:52:42;;;;;;;20.08;10.95;;;34.10;10.60;;;;;;5012544;28;20213;-90
2021/06/02 09:55:20;;;;;;;6.72;4.90;;;34.20;10.30;;;;;;5013103;28;20223;-90
2021/06/02 09:57:53;;;;;;;7.05;4.97;;;34.90;7.90;;;;;;5005282;28;20238;-89
2021/06/02 10:00:19;;;;;;;9.30;6.80;;;35.30;9.60;;;;;;5024671;28;20227;-89
2021/06/02 10:02:57;;;;;;;5.88;5.22;;;35.70;9.40;;;;;;5010579;28;20207;-90
2021/06/02 10:05:39;;;;;;;5.80;5.30;;;36.10;7.00;;;;;;5001669;28;20226;-89
2021/06/02 10:08:06;;;;;;;5.90;5.40;;;35.60;9.80;;;;;;5009969;28;20662;-90
2021/06/02 10:10:33;;;;;;;7.85;6.07;;;35.40;6.50;;;;;;5021898;28;20222;-89
2021/06/02 10:13:04;;;;;;;6.55;5.95;;;36.10;7.70;;;;;;5024515;28;20209;-89
2021/06/02 10:15:33;;;;;;;9.45;5.63;;;36.40;7.60;;;;;;5003389;28;20689;-90
2021/06/02 10:18:03;;;;;;;5.80;5.20;;;35.50;8.60;;;;;;5011585;28;20657;-90
2021/06/02 10:20:29;;;;;;;10.15;5.22;;;34.50;8.00;;;;;;5011050;28;20230;-90
2021/06/02 10:22:56;;;;;;;8.95;4.88;;;33.70;10.10;;;;;;5006838;28;20234;-90
2021/06/02 10:25:24;;;;;;;5.95;5.15;;;33.90;10.20;;;;;;5006235;28;20241;-91
2021/06/02 10:27:54;;;;;;;5.20;4.70;;;34.60;8.40;;;;;;5012002;28;20673;-90
2021/06/02 10:30:22;;;;;;;4.78;4.35;;;34.70;8.30;;;;;;5012032;28;20288;-89
2021/06/02 10:32:49;;;;;;;9.50;4.80;;;34.60;9.30;;;;;;5011673;28;20195;-89
2021/06/02 10:35:17;;;;;;;4.95;4.45;;;35.10;9.50;;;;;;5005488;28;20272;-91
2021/06/02 10:37:44;;;;;;;4.88;4.05;;;35.10;9.50;;;;;;5010031;28;20281;-89
2021/06/02 10:40:13;;;;;;;5.95;4.47;;;34.00;9.60;;;;;;5010212;28;20222;-90
2021/06/02 10:42:48;;;;;;;5.32;4.43;;;33.40;10.80;;;;;;4998693;28;20633;-91
2021/06/02 10:45:20;;;;;;;8.35;4.10;;;32.80;11.20;;;;;;5011546;28;20222;-90
2021/06/02 10:47:54;;;;;;;7.38;4.22;;;32.60;11.50;;;;;;5010309;28;20254;-90
2021/06/02 10:50:31;;;;;;;5.85;3.60;;;32.70;13.20;;;;;;5004481;28;20258;-88
2021/06/02 10:52:57;;;;;;;4.05;3.42;;;33.70;9.20;;;;;;5014746;28;20198;-87
2021/06/02 10:55:39;;;;;;;4.00;3.60;;;33.70;9.90;;;;;;5016420;28;20268;-86
2021/06/02 10:58:31;;;;;;;3.95;3.42;;;32.30;8.10;;;;;;5014493;28;20230;-88
2021/06/02 11:01:16;;;;;;;5.03;3.50;;;31.90;10.60;;;;;;5020117;28;20223;-87
2021/06/02 11:03:44;;;;;;;7.63;3.28;;;31.60;13.00;;;;;;5014444;28;20229;-87
2021/06/02 11:06:38;;;;;;;4.85;2.75;;;30.60;10.90;;;;;;5019063;28;20199;-87
2021/06/02 11:09:16;;;;;;;2.60;2.35;;;29.80;13.20;;;;;;5011453;28;20589;-86
2021/06/02 11:11:44;;;;;;;2.92;2.63;;;29.10;11.80;;;;;;5010029;28;20269;-85
2021/06/02 11:14:27;;;;;;;5.43;2.90;;;28.70;15.80;;;;;;5016195;28;20233;-87
2021/06/02 11:17:11;;;;;;;4.32;2.83;;;27.80;15.50;;;;;;5020345;28;20254;-87
2021/06/02 11:19:41;;;;;;;3.10;2.60;;;27.60;17.30;;;;;;5022888;28;20687;-87
2021/06/02 11:22:13;;;;;;;4.10;2.75;;;27.40;17.20;;;;;;5023573;28;20225;-90
2021/06/02 11:24:47;;;;;;;3.17;2.33;;;27.20;18.20;;;;;;5010999;28;20230;-83
2021/06/02 11:27:42;;;;;;;5.57;2.50;;;26.50;14.90;;;;;;5021029;28;20568;-84
2021/06/02 11:30:22;;;;;;;4.38;2.20;;;26.50;14.90;;;;;;5025604;28;20610;-84
2021/06/02 11:33:05;;;;;;;3.55;2.40;;;26.40;18.10;;;;;;5016253;28;20195;-85
2021/06/02 11:36:06;;;;;;;3.20;2.40;;;26.60;15.00;;;;;;5005977;28;20227;-89
2021/06/02 11:38:36;;;;;;;4.60;2.40;;;26.60;17.00;;;;;;4970853;28;20239;-86
2021/06/02 11:41:03;;;;;;;6.53;2.47;;;26.20;14.70;;;;;;4976919;28;20254;-86
2021/06/02 11:43:29;;;;;;;3.25;2.40;;;26.10;14.70;;;;;;4998151;28;20216;-86
2021/06/02 11:46:03;;;;;;;6.68;2.50;;;26.20;15.30;;;;;;5015669;28;20203;-86
2021/06/02 11:48:34;;;;;;;5.63;2.30;;;26.40;14.80;;;;;;5015173;28;20576;-87
2021/06/02 11:51:08;;;;;;;4.57;2.55;;;26.40;14.90;;;;;;5010847;28;20210;-90
2021/06/02 11:53:44;;;;;;;4.28;2.50;;;26.40;14.90;;;;;;5019395;28;20246;-87
2021/06/02 11:56:11;;;;;;;9.32;2.90;;;26.30;14.90;;;;;;5015545;28;20234;-87
2021/06/02 11:58:41;;;;;;;3.75;2.40;;;26.00;14.60;;;;;;5017839;28;20251;-89
2021/06/02 12:01:07;;;;;;;3.72;2.25;;;25.90;15.40;;;;;;5005570;28;20200;-86
2021/06/02 12:03:53;;;;;;;6.40;2.75;;;26.00;16.80;;;;;;5008814;28;20575;-86
2021/06/02 12:06:28;;;;;;;4.43;2.60;;;26.10;18.20;;;;;;5005155;28;20206;-86
2021/06/02 12:08:56;;;;;;;3.15;2.45;;;25.90;17.50;;;;;;5012791;28;20582;-87
2021/06/02 12:11:25;;;;;;;5.95;2.45;;;25.90;17.00;;;;;;5012559;28;20217;-87
2021/06/02 12:13:51;;;;;;;3.85;2.30;;;25.60;16.60;;;;;;5006870;28;20596;-88
2021/06/02 12:16:24;;;;;;;2.40;2.08;;;25.90;18.00;;;;;;5010784;28;20207;-89
2021/06/02 12:18:51;;;;;;;5.63;5.10;;;25.90;15.30;;;;;;5011041;28;20228;-88
2021/06/02 12:21:20;;;;;;;2.95;2.28;;;26.00;15.80;;;;;;5023041;28;20199;-86
2021/06/02 12:23:49;;;;;;;5.72;2.45;;;25.90;14.60;;;;;;5009117;28;20228;-88
2021/06/02 12:26:25;;;;;;;3.67;2.40;;;25.90;18.30;;;;;;5011967;28;20286;-87
2021/06/02 12:28:52;;;;;;;2.75;2.30;;;25.90;14.60;;;;;;5011599;28;20236;-85
2021/06/02 12:31:30;;;;;;;3.47;2.42;;;26.00;14.60;;;;;;5015879;28;20207;-89
2021/06/02 12:34:01;;;;;;;3.55;2.40;;;26.00;14.60;;;;;;5006855;28;20223;-87
2021/06/02 12:36:28;;;;;;;3.10;2.20;;;26.10;13.70;;;;;;5013562;28;20198;-87
2021/06/02 12:38:54;;;;;;;5.35;2.33;;;26.20;14.70;;;;;;5012605;28;20231;-88
2021/06/02 12:41:25;;;;;;;2.85;2.20;;;26.20;14.70;;;;;;5010616;28;20207;-86
2021/06/02 12:43:52;;;;;;;3.17;2.30;;;26.30;14.80;;;;;;5011896;28;20286;-87
2021/06/02 12:46:19;;;;;;;2.45;2.25;;;26.30;14.80;;;;;;5004175;28;20215;-87
2021/06/02 12:48:46;;;;;;;5.95;2.60;;;26.40;14.90;;;;;;5020916;28;20254;-87
2021/06/02 12:51:17;;;;;;;5.05;2.90;;;26.40;15.80;;;;;;5012158;28;20415;-87
2021/06/02 12:53:46;;;;;;;2.85;2.28;;;26.30;14.80;;;;;;5011587;28;20702;-87
2021/06/02 12:56:14;;;;;;;2.80;2.60;;;25.90;14.60;;;;;;5010645;28;20208;-87
2021/06/02 12:58:42;;;;;;;3.95;2.60;;;26.00;14.70;;;;;;5014056;28;20280;-87
2021/06/02 13:01:11;;;;;;;3.65;2.70;;;25.90;14.60;;;;;;5009514;28;20200;-87
2021/06/02 13:03:44;;;;;;;2.95;2.63;;;25.90;14.60;;;;;;5011563;28;20223;-87
2021/06/02 13:06:14;;;;;;;2.60;2.40;;;26.00;14.70;;;;;;5014632;28;20192;-89
2021/06/02 13:08:41;;;;;;;5.00;2.72;;;25.90;16.50;;;;;;5011531;28;20277;-87
2021/06/02 13:11:09;;;;;;;4.80;2.92;;;26.00;14.70;;;;;;5014196;28;20242;-87
2021/06/02 13:13:36;;;;;;;3.13;2.53;;;26.00;14.60;;;;;;5013154;28;20289;-86
2021/06/02 13:16:07;;;;;;;6.97;3.60;;;25.80;14.50;;;;;;5005794;28;20499;-87
2021/06/02 13:18:33;;;;;;;9.27;3.53;;;25.90;19.50;;;;;;5012652;28;20231;-86
2021/06/02 13:21:10;;;;;;;5.18;3.50;;;26.20;19.20;;;;;;5014928;28;20204;-86
2021/06/02 13:23:38;;;;;;;6.47;3.30;;;26.50;18.10;;;;;;5005041;28;20231;-89
2021/06/02 13:26:07;;;;;;;3.58;3.28;;;26.40;18.10;;;;;;5008384;28;20199;-87
2021/06/02 13:28:41;;;;;;;7.28;3.63;;;26.10;18.30;;;;;;5012215;28;20397;-87
2021/06/02 13:31:10;;;;;;;6.35;3.17;;;25.70;18.50;;;;;;5015844;28;20202;-86
2021/06/02 13:33:40;;;;;;;5.60;3.60;;;25.40;20.00;;;;;;5017610;28;20526;-90
2021/06/02 13:36:09;;;;;;;8.93;3.55;;;25.20;20.10;;;;;;5011665;28;20210;-87
2021/06/02 13:38:37;;;;;;;7.38;3.00;;;25.30;19.30;;;;;;5011555;28;20222;-87
2021/06/02 13:41:03;;;;;;;6.15;3.60;;;25.50;19.00;;;;;;5006151;28;20199;-86
2021/06/02 13:43:41;;;;;;;38.47;34.10;;;25.60;19.30;;;;;;5015614;28;20566;-87
2021/06/02 13:46:10;;;;;;;6.30;3.97;;;25.20;18.50;;;;;;5007077;28;20200;-86
2021/06/02 13:48:38;;;;;;;6.30;3.08;;;25.20;19.20;;;;;;5016361;28;20752;-87
2021/06/02 13:51:22;;;;;;;6.63;3.17;;;25.30;19.20;;;;;;5013149;28;20247;-86
2021/06/02 13:54:03;;;;;;;5.50;4.20;;;25.40;19.30;;;;;;5024921;28;20238;-87
2021/06/02 13:56:31;;;;;;;4.47;3.58;;;25.30;19.00;;;;;;5010431;28;20199;-87
2021/06/02 13:59:05;;;;;;;3.42;2.83;;;25.20;18.30;;;;;;5014420;28;20227;-85
2021/06/02 14:01:33;;;;;;;4.95;3.17;;;25.30;18.80;;;;;;5007166;28;20210;-88
2021/06/02 14:04:00;;;;;;;6.35;3.38;;;25.10;20.30;;;;;;5017532;28;20231;-87
2021/06/02 14:06:26;;;;;;;8.20;3.25;;;25.20;19.00;;;;;;5012759;28;20207;-86
2021/06/02 14:08:52;;;;;;;8.23;3.70;;;25.20;20.60;;;;;;5014730;28;20238;-88
2021/06/02 14:11:22;;;;;;;6.00;3.33;;;25.20;18.50;;;;;;5017752;28;20691;-89
2021/06/02 14:13:49;;;;;;;7.47;3.35;;;25.20;18.70;;;;;;5014264;28;20224;-89
2021/06/02 14:16:18;;;;;;;6.20;3.80;;;25.10;18.90;;;;;;5022245;28;20203;-86
2021/06/02 14:18:46;;;;;;;4.80;3.85;;;24.90;19.00;;;;;;5009475;28;20232;-87
2021/06/02 14:21:12;;;;;;;10.90;3.78;;;24.60;19.30;;;;;;5014135;28;20742;-86
2021/06/02 14:23:39;;;;;;;7.88;3.13;;;24.70;17.90;;;;;;5016181;28;20625;-87
2021/06/02 14:26:06;;;;;;;4.25;3.17;;;24.70;19.30;;;;;;5020663;28;20250;-88
2021/06/02 14:28:33;;;;;;;6.93;3.67;;;24.70;18.80;;;;;;5010609;28;20703;-87
2021/06/02 14:30:59;;;;;;;6.47;3.10;;;24.60;19.30;;;;;;5018288;28;20203;-88
2021/06/02 14:33:26;;;;;;;9.63;3.08;;;24.70;18.70;;;;;;5015852;28;20207;-86
2021/06/02 14:35:54;;;;;;;5.85;2.90;;;24.70;20.30;;;;;;5010387;28;20211;-87
2021/06/02 14:38:21;;;;;;;4.55;2.55;;;24.90;18.60;;;;;;5018792;28;20233;-87
2021/06/02 14:40:48;;;;;;;6.38;3.00;;;24.80;18.40;;;;;;5012459;28;20233;-87
2021/06/02 14:43:14;;;;;;;6.15;2.78;;;24.80;17.70;;;;;;5020200;28;20291;-88
2021/06/02 14:45:42;;;;;;;4.82;2.83;;;24.90;17.40;;;;;;5007957;28;20240;-87
2021/06/02 14:48:09;;;;;;;5.18;3.00;;;25.00;15.10;;;;;;5020970;28;20208;-87
2021/06/02 14:50:35;;;;;;;3.70;3.25;;;24.90;18.60;;;;;;5018517;28;20234;-88
2021/06/02 14:53:03;;;;;;;5.20;3.20;;;24.90;19.60;;;;;;5009963;28;20711;-88
2021/06/02 14:55:30;;;;;;;2.90;2.58;;;24.60;19.90;;;;;;5025864;28;20664;-87
2021/06/02 14:57:56;;;;;;;8.10;3.42;;;24.60;21.50;;;;;;5022540;28;20294;-87
2021/06/02 15:00:24;;;;;;;4.63;2.70;;;24.70;19.60;;;;;;5017548;28;20650;-88
2021/06/02 15:02:51;;;;;;;4.45;2.83;;;24.70;20.00;;;;;;5020324;28;20689;-88
2021/06/02 15:05:18;;;;;;;4.35;2.75;;;24.80;19.70;;;;;;5023074;28;20593;-86
2021/06/02 15:07:47;;;;;;;6.18;2.53;;;24.70;19.40;;;;;;5020149;28;20211;-87
2021/06/02 15:10:19;;;;;;;5.50;2.50;;;24.70;17.00;;;;;;5027564;28;20222;-85
2021/06/02 15:12:49;;;;;;;3.80;2.53;;;24.70;15.60;;;;;;5028035;28;20196;-87
2021/06/02 15:15:16;;;;;;;3.88;2.78;;;24.70;18.70;;;;;;4999364;28;20235;-89
2021/06/02 15:17:43;;;;;;;4.38;2.50;;;24.30;19.30;;;;;;5032631;28;20235;-86
2021/06/02 15:20:12;;;;;;;4.07;2.63;;;23.90;19.90;;;;;;5036954;28;20219;-86
2021/06/02 15:22:38;;;;;;;5.22;2.42;;;24.10;18.90;;;;;;5014047;28;20199;-88